Time;durP1;ratioP1;P1;durP2;ratioP2;P2;SDS_P1;SDS_P2;PMS_P1;PMS_P2;Temp;Humidity;BMP_temperature;BMP_pressure;BME280_temperature;BME280_humidity;BME280_pressure;Samples;Min_cycle;Max_cycle;Signal;HPM_P1;HPM_P2
2021/07/08 00:01:42;;;;;;;7.35;4.00;;;19.00;99.90;;;;;;5069590;28;20372;-51
2021/07/08 00:04:07;;;;;;;9.27;4.40;;;19.00;99.90;;;;;;5070187;28;20392;-51
2021/07/08 00:06:33;;;;;;;7.77;3.83;;;18.90;99.90;;;;;;5068083;28;20781;-51
2021/07/08 00:08:59;;;;;;;6.80;3.70;;;18.70;99.90;;;;;;5069997;28;20391;-51
2021/07/08 00:11:25;;;;;;;6.63;4.15;;;18.80;99.90;;;;;;5069242;28;20376;-51
2021/07/08 00:13:51;;;;;;;7.60;3.90;;;18.80;99.90;;;;;;5069892;28;20372;-51
2021/07/08 00:16:17;;;;;;;7.43;3.50;;;18.90;99.90;;;;;;5069643;28;20734;-58
2021/07/08 00:18:43;;;;;;;8.00;4.03;;;18.90;99.90;;;;;;5069293;28;20435;-51
2021/07/08 00:21:09;;;;;;;11.90;3.83;;;18.90;99.90;;;;;;5069813;28;20379;-51
2021/07/08 00:23:34;;;;;;;7.85;3.85;;;18.90;99.90;;;;;;5069155;28;21341;-52
2021/07/08 00:26:01;;;;;;;7.40;3.90;;;18.80;99.90;;;;;;5069662;28;20379;-51
2021/07/08 00:28:27;;;;;;;6.57;3.60;;;18.80;99.90;;;;;;5068980;28;20500;-51
2021/07/08 00:30:53;;;;;;;7.90;4.18;;;18.80;99.90;;;;;;5068746;28;20419;-51
2021/07/08 00:33:20;;;;;;;6.40;4.00;;;18.90;99.90;;;;;;5068708;28;20380;-58
2021/07/08 00:35:46;;;;;;;6.50;3.90;;;18.90;99.90;;;;;;5069325;28;20392;-53
2021/07/08 00:38:12;;;;;;;10.10;3.70;;;19.00;99.90;;;;;;5069645;28;20414;-51
2021/07/08 00:40:38;;;;;;;7.23;3.60;;;19.10;99.90;;;;;;5068572;28;20941;-51
2021/07/08 00:43:04;;;;;;;8.38;4.03;;;19.10;99.90;;;;;;5069502;28;20398;-51
2021/07/08 00:45:30;;;;;;;9.70;3.90;;;18.90;99.90;;;;;;5068399;28;20432;-51
2021/07/08 00:47:55;;;;;;;6.70;4.10;;;18.80;99.90;;;;;;5068986;28;20408;-52
2021/07/08 00:50:28;;;;;;;11.20;4.40;;;18.70;99.90;;;;;;5081614;28;20382;-51
2021/07/08 00:52:54;;;;;;;6.95;4.05;;;18.60;99.90;;;;;;5072314;28;20379;-51
2021/07/08 00:55:21;;;;;;;8.43;3.95;;;18.50;99.90;;;;;;5084810;28;20385;-57
2021/07/08 00:57:53;;;;;;;6.28;3.78;;;18.50;99.90;;;;;;5088024;28;20488;-51
2021/07/08 01:00:25;;;;;;;8.13;4.80;;;18.60;99.90;;;;;;5084873;28;20387;-57
2021/07/08 01:02:51;;;;;;;6.55;4.18;;;18.70;99.90;;;;;;5069470;28;20399;-51
2021/07/08 01:05:22;;;;;;;7.30;3.63;;;18.70;99.90;;;;;;5067163;28;20407;-56
2021/07/08 01:07:48;;;;;;;7.63;4.00;;;18.60;99.90;;;;;;5068713;28;20524;-51
2021/07/08 01:10:15;;;;;;;8.88;4.55;;;18.50;99.90;;;;;;5069497;28;20380;-51
2021/07/08 01:12:41;;;;;;;8.93;4.55;;;18.50;99.90;;;;;;5075206;28;21035;-51
2021/07/08 01:15:09;;;;;;;8.40;4.33;;;18.50;99.90;;;;;;5089408;28;20465;-51
2021/07/08 01:17:35;;;;;;;11.27;4.30;;;18.30;99.90;;;;;;5088466;28;20797;-54
2021/07/08 01:20:02;;;;;;;6.82;3.88;;;18.30;99.90;;;;;;5089346;28;20420;-51
2021/07/08 01:22:27;;;;;;;5.75;3.70;;;18.30;99.90;;;;;;5088339;28;20378;-51
2021/07/08 01:24:54;;;;;;;9.60;3.90;;;18.40;99.90;;;;;;5088179;28;20405;-51
2021/07/08 01:27:20;;;;;;;7.35;3.83;;;18.50;99.90;;;;;;5088466;28;20402;-57
2021/07/08 01:29:46;;;;;;;6.80;3.53;;;18.50;99.90;;;;;;5089232;28;20392;-51
2021/07/08 01:32:12;;;;;;;9.40;4.00;;;18.50;99.90;;;;;;5089188;28;20384;-52
2021/07/08 01:34:37;;;;;;;8.83;3.87;;;18.50;99.90;;;;;;5088097;28;21014;-52
2021/07/08 01:37:03;;;;;;;8.83;4.00;;;18.50;99.90;;;;;;5088847;28;20415;-51
2021/07/08 01:39:29;;;;;;;6.28;4.00;;;18.60;99.90;;;;;;5088757;28;20374;-51
2021/07/08 01:41:54;;;;;;;6.97;4.00;;;18.60;99.90;;;;;;5089226;28;20728;-51
2021/07/08 01:44:20;;;;;;;7.18;3.80;;;18.70;99.90;;;;;;5088278;28;20386;-51
2021/07/08 01:46:46;;;;;;;11.93;4.10;;;18.80;99.90;;;;;;5088736;28;20417;-51
2021/07/08 01:49:12;;;;;;;8.60;4.50;;;18.80;99.90;;;;;;5088885;28;20374;-51
2021/07/08 01:51:38;;;;;;;7.53;4.20;;;18.70;99.90;;;;;;5088059;28;20489;-51
2021/07/08 01:54:08;;;;;;;9.05;4.57;;;18.70;99.90;;;;;;5088861;28;20386;-51
2021/07/08 01:56:35;;;;;;;8.90;4.70;;;18.40;99.90;;;;;;5087167;28;20394;-53
2021/07/08 01:59:02;;;;;;;9.73;4.82;;;18.20;99.90;;;;;;5088127;28;20381;-54
2021/07/08 02:01:28;;;;;;;8.55;4.90;;;18.10;99.90;;;;;;5087424;28;20392;-52
2021/07/08 02:03:54;;;;;;;7.03;4.30;;;18.10;99.90;;;;;;5088829;28;20794;-51
2021/07/08 02:09:41;;;;;;;9.25;4.80;;;18.10;99.90;;;;;;5088112;28;20413;-51
2021/07/08 02:12:09;;;;;;;9.50;4.67;;;19.70;99.90;;;;;;5088235;28;20409;-51
2021/07/08 02:14:35;;;;;;;12.43;4.70;;;18.10;99.90;;;;;;5087855;28;20386;-51
2021/07/08 02:17:00;;;;;;;8.43;4.88;;;18.20;99.90;;;;;;5089126;28;20530;-52
2021/07/08 02:19:26;;;;;;;7.93;4.40;;;18.30;99.90;;;;;;5087669;28;20463;-54
2021/07/08 02:21:52;;;;;;;9.17;4.83;;;18.30;99.90;;;;;;5088670;28;20378;-51
2021/07/08 02:24:17;;;;;;;12.77;4.40;;;18.20;99.90;;;;;;5088650;28;20461;-51
2021/07/08 02:26:43;;;;;;;10.30;4.40;;;18.20;99.90;;;;;;5087434;28;20554;-51
2021/07/08 02:29:09;;;;;;;9.00;4.50;;;18.20;99.90;;;;;;5087425;28;20397;-52
2021/07/08 02:31:36;;;;;;;8.38;4.90;;;18.10;99.90;;;;;;5090463;28;20955;-52
2021/07/08 02:34:02;;;;;;;7.63;4.30;;;18.10;99.90;;;;;;5091921;28;20457;-52
2021/07/08 02:36:27;;;;;;;13.30;4.95;;;18.20;99.90;;;;;;5091192;28;20883;-52
2021/07/08 02:38:53;;;;;;;7.80;4.40;;;18.20;99.90;;;;;;5091796;28;20427;-52
2021/07/08 02:41:19;;;;;;;9.30;4.90;;;18.20;99.90;;;;;;5091806;28;20427;-58
2021/07/08 02:43:44;;;;;;;7.97;4.28;;;18.10;99.90;;;;;;5091313;28;20423;-52
2021/07/08 02:46:10;;;;;;;11.50;4.20;;;18.20;99.90;;;;;;5091583;28;20751;-52
2021/07/08 02:48:36;;;;;;;9.50;4.40;;;18.20;99.90;;;;;;5091011;28;20382;-53
2021/07/08 02:51:02;;;;;;;10.13;4.50;;;18.30;99.90;;;;;;5091860;28;20848;-52
2021/07/08 02:53:28;;;;;;;12.43;5.00;;;18.40;99.90;;;;;;5089703;28;20974;-51
2021/07/08 02:55:54;;;;;;;10.43;4.40;;;18.40;99.90;;;;;;5090292;28;20424;-51
2021/07/08 02:58:20;;;;;;;10.00;4.20;;;18.40;99.90;;;;;;5091589;28;20473;-58
2021/07/08 03:00:47;;;;;;;10.85;4.55;;;18.40;99.90;;;;;;5091120;28;20378;-51
2021/07/08 03:03:12;;;;;;;9.93;4.45;;;18.30;99.90;;;;;;5091603;28;20887;-51
2021/07/08 03:05:38;;;;;;;11.40;4.50;;;18.20;99.90;;;;;;5090669;28;20413;-55
2021/07/08 03:08:04;;;;;;;10.77;4.82;;;18.20;99.90;;;;;;5091310;28;20417;-51
2021/07/08 03:10:30;;;;;;;10.05;4.30;;;18.10;99.90;;;;;;5090598;28;20381;-51
2021/07/08 03:12:56;;;;;;;10.10;4.80;;;18.10;99.90;;;;;;5091559;28;20382;-51
2021/07/08 03:15:23;;;;;;;8.30;4.95;;;18.10;99.90;;;;;;5089537;28;20416;-51
2021/07/08 03:17:49;;;;;;;14.00;5.30;;;18.10;99.90;;;;;;5090031;28;20389;-51
2021/07/08 03:20:18;;;;;;;9.53;4.70;;;18.10;99.90;;;;;;5091504;28;20922;-51
2021/07/08 03:22:45;;;;;;;10.73;4.88;;;18.10;99.90;;;;;;5090419;28;20377;-51
2021/07/08 03:25:13;;;;;;;18.67;5.38;;;18.10;99.90;;;;;;5090879;28;20400;-51
2021/07/08 03:27:40;;;;;;;11.30;5.30;;;18.00;99.90;;;;;;5090421;28;20427;-51
2021/07/08 03:30:09;;;;;;;13.27;4.53;;;17.90;99.90;;;;;;5090791;28;20382;-51
2021/07/08 03:32:35;;;;;;;10.48;4.43;;;18.00;99.90;;;;;;5090463;28;20378;-51
2021/07/08 03:35:02;;;;;;;10.35;4.57;;;18.10;99.90;;;;;;5091320;28;20390;-51
2021/07/08 03:37:27;;;;;;;9.90;5.45;;;18.10;99.90;;;;;;5090329;28;20523;-52
2021/07/08 03:39:53;;;;;;;8.87;5.23;;;18.20;99.90;;;;;;5090579;28;20846;-51
2021/07/08 03:42:19;;;;;;;11.07;5.43;;;18.10;99.90;;;;;;5090223;28;20932;-51
2021/07/08 03:44:44;;;;;;;9.10;4.80;;;18.00;99.90;;;;;;5089953;28;20386;-51
2021/07/08 03:47:10;;;;;;;9.13;5.03;;;18.10;99.90;;;;;;5090772;28;20743;-51
2021/07/08 03:49:36;;;;;;;7.55;4.35;;;18.20;99.90;;;;;;5089749;28;20511;-51
2021/07/08 03:52:02;;;;;;;14.07;5.40;;;18.30;99.90;;;;;;5090531;28;20378;-51
2021/07/08 03:54:27;;;;;;;14.18;5.00;;;18.20;99.90;;;;;;5089583;28;20382;-51
2021/07/08 03:56:53;;;;;;;9.85;5.20;;;18.20;99.90;;;;;;5090280;28;20473;-52
2021/07/08 03:59:18;;;;;;;12.15;5.60;;;18.20;99.90;;;;;;5090572;28;20858;-52
2021/07/08 04:01:44;;;;;;;11.70;5.20;;;18.30;99.90;;;;;;5089782;28;20374;-51
2021/07/08 04:04:10;;;;;;;12.00;5.33;;;18.20;99.90;;;;;;5089041;28;20768;-52
2021/07/08 04:06:35;;;;;;;12.02;5.60;;;18.20;99.90;;;;;;5089859;28;20926;-51
2021/07/08 04:09:01;;;;;;;13.00;5.63;;;18.20;99.90;;;;;;5090351;28;20406;-51
2021/07/08 04:11:27;;;;;;;10.07;5.00;;;18.20;99.90;;;;;;5089915;28;20394;-51
2021/07/08 04:13:52;;;;;;;10.37;5.40;;;18.20;99.90;;;;;;5090057;28;20409;-51
2021/07/08 04:16:18;;;;;;;10.57;5.20;;;18.20;99.90;;;;;;5090459;28;20381;-51
2021/07/08 04:18:43;;;;;;;10.53;5.20;;;18.20;99.90;;;;;;5089343;28;20378;-51
2021/07/08 04:21:09;;;;;;;16.30;5.40;;;18.20;99.90;;;;;;5089774;28;20443;-53
2021/07/08 04:23:35;;;;;;;8.60;5.50;;;18.30;99.90;;;;;;5087982;28;20389;-51
2021/07/08 04:26:00;;;;;;;10.18;6.00;;;18.40;99.90;;;;;;5090015;28;20424;-51
2021/07/08 04:28:26;;;;;;;10.60;6.00;;;18.40;99.90;;;;;;5089082;28;20423;-51
2021/07/08 04:30:52;;;;;;;11.60;6.10;;;18.40;99.90;;;;;;5089795;28;20377;-51
2021/07/08 04:33:17;;;;;;;9.82;6.10;;;18.40;99.90;;;;;;5089258;28;20469;-52
2021/07/08 04:35:44;;;;;;;12.47;5.67;;;18.30;99.90;;;;;;5088598;28;20444;-51
2021/07/08 04:38:12;;;;;;;11.68;6.25;;;18.30;99.90;;;;;;5089741;28;20453;-51
2021/07/08 04:40:39;;;;;;;11.65;5.90;;;18.40;99.90;;;;;;5088763;28;20386;-51
2021/07/08 04:43:06;;;;;;;10.30;5.57;;;18.50;99.90;;;;;;5086647;28;20390;-51
2021/07/08 04:45:32;;;;;;;12.50;6.00;;;18.60;99.90;;;;;;5088426;28;20902;-51
2021/07/08 04:47:58;;;;;;;8.38;5.80;;;18.70;99.90;;;;;;5088985;28;20907;-52
2021/07/08 04:50:25;;;;;;;11.57;6.30;;;18.70;99.90;;;;;;5088681;28;20721;-52
2021/07/08 04:52:51;;;;;;;9.82;6.00;;;18.70;99.90;;;;;;5089534;28;20736;-54
2021/07/08 04:55:18;;;;;;;9.48;6.00;;;18.60;99.90;;;;;;5105970;28;20388;-54
2021/07/08 04:57:45;;;;;;;14.98;6.65;;;18.60;99.90;;;;;;5095288;28;20459;-51
2021/07/08 05:00:12;;;;;;;9.98;6.10;;;18.50;99.90;;;;;;5097904;28;20882;-51
2021/07/08 05:02:42;;;;;;;10.77;6.22;;;18.50;99.90;;;;;;5098278;28;20413;-51
2021/07/08 05:05:10;;;;;;;9.37;6.33;;;18.50;99.90;;;;;;5094314;28;20870;-52
2021/07/08 05:07:37;;;;;;;8.93;6.20;;;18.60;99.90;;;;;;5090989;28;20425;-51
2021/07/08 05:10:11;;;;;;;11.15;6.25;;;18.60;99.90;;;;;;5090749;28;20397;-51
2021/07/08 05:12:37;;;;;;;11.10;5.68;;;18.60;99.90;;;;;;5095791;28;20747;-51
2021/07/08 05:15:08;;;;;;;9.03;5.67;;;18.80;99.90;;;;;;5105683;28;20593;-51
2021/07/08 05:17:34;;;;;;;10.60;5.97;;;18.80;99.90;;;;;;5090040;28;20552;-53
2021/07/08 05:20:00;;;;;;;11.90;6.38;;;18.80;99.90;;;;;;5087905;28;20467;-51
2021/07/08 05:22:26;;;;;;;13.57;6.03;;;18.70;99.90;;;;;;5091503;28;20978;-58
2021/07/08 05:24:51;;;;;;;10.63;6.20;;;18.70;99.90;;;;;;5103002;28;20450;-54
2021/07/08 05:27:17;;;;;;;12.00;6.20;;;18.70;99.90;;;;;;5098498;28;20458;-52
2021/07/08 05:29:44;;;;;;;11.50;6.20;;;18.80;99.90;;;;;;5095244;28;20431;-52
2021/07/08 05:32:10;;;;;;;9.35;5.80;;;18.90;99.90;;;;;;5101355;28;20418;-51
2021/07/08 05:34:36;;;;;;;9.75;5.80;;;18.80;99.90;;;;;;5105520;28;20376;-51
2021/07/08 05:37:02;;;;;;;10.95;5.70;;;18.80;99.90;;;;;;5076904;28;20506;-51
2021/07/08 05:39:27;;;;;;;9.20;6.60;;;18.80;99.90;;;;;;5096473;28;20455;-51
2021/07/08 05:41:53;;;;;;;9.30;5.70;;;18.80;99.90;;;;;;5108865;28;20445;-51
2021/07/08 05:44:18;;;;;;;10.85;6.03;;;19.00;99.90;;;;;;5100554;28;20461;-51
2021/07/08 05:46:44;;;;;;;9.77;5.82;;;19.10;99.90;;;;;;5093586;28;20559;-52
2021/07/08 05:49:10;;;;;;;11.00;6.30;;;19.20;99.90;;;;;;5075358;28;20395;-51
2021/07/08 05:51:35;;;;;;;11.37;6.70;;;19.30;99.90;;;;;;5075498;28;20398;-51
2021/07/08 05:54:01;;;;;;;10.90;7.00;;;19.50;99.90;;;;;;5088241;28;20378;-54
2021/07/08 05:56:28;;;;;;;9.90;6.70;;;19.50;99.90;;;;;;5093047;28;20408;-58
2021/07/08 05:58:54;;;;;;;19.65;9.65;;;19.50;99.90;;;;;;5093355;28;20386;-55
2021/07/08 06:01:21;;;;;;;12.55;7.55;;;19.50;99.90;;;;;;5090006;28;20497;-51
2021/07/08 06:03:47;;;;;;;12.38;7.30;;;19.50;99.90;;;;;;5104100;28;20388;-52
2021/07/08 06:06:14;;;;;;;10.35;7.10;;;18.50;99.90;;;;;;5091974;28;20408;-53
2021/07/08 06:08:40;;;;;;;10.65;7.40;;;19.50;99.90;;;;;;5090911;28;20418;-52
2021/07/08 06:11:06;;;;;;;15.33;7.50;;;19.50;99.90;;;;;;5092087;28;20386;-52
2021/07/08 06:13:31;;;;;;;11.48;7.05;;;19.60;99.90;;;;;;5099330;28;20462;-53
2021/07/08 06:15:57;;;;;;;13.00;6.70;;;19.70;99.90;;;;;;5092044;28;20871;-53
2021/07/08 06:18:22;;;;;;;11.83;6.90;;;19.80;99.90;;;;;;5091791;28;20415;-56
2021/07/08 06:20:49;;;;;;;10.77;6.23;;;19.90;99.90;;;;;;5090231;28;20378;-55
2021/07/08 06:23:15;;;;;;;8.90;5.88;;;19.90;99.90;;;;;;5090603;28;20420;-53
2021/07/08 06:25:41;;;;;;;12.47;6.00;;;20.00;99.90;;;;;;5090852;28;20393;-55
2021/07/08 06:31:29;;;;;;;8.23;5.07;;;20.20;99.90;;;;;;5088292;28;20407;-52
2021/07/08 06:33:54;;;;;;;9.80;4.73;;;20.30;99.90;;;;;;5091699;28;20409;-53
2021/07/08 06:36:20;;;;;;;8.68;4.70;;;20.20;99.90;;;;;;5092227;28;20394;-56
2021/07/08 06:38:46;;;;;;;9.15;4.50;;;20.30;99.90;;;;;;5091127;28;20469;-52
2021/07/08 06:41:11;;;;;;;6.50;4.30;;;20.40;99.90;;;;;;5121464;27;20390;-53
2021/07/08 06:43:37;;;;;;;8.77;4.20;;;20.30;99.90;;;;;;5091497;28;20370;-53
2021/07/08 06:46:03;;;;;;;8.93;4.10;;;20.30;99.90;;;;;;5090472;28;20394;-53
2021/07/08 06:48:28;;;;;;;7.32;3.70;;;20.50;99.90;;;;;;5091133;28;20406;-57
2021/07/08 06:50:54;;;;;;;8.93;4.15;;;20.50;99.90;;;;;;5090798;28;20715;-53
2021/07/08 06:53:19;;;;;;;9.53;4.27;;;20.50;99.90;;;;;;5090024;28;20382;-55
2021/07/08 06:55:45;;;;;;;7.47;4.13;;;20.60;99.90;;;;;;5089501;28;20889;-52
2021/07/08 06:58:11;;;;;;;8.00;4.50;;;20.60;99.90;;;;;;5089110;28;20418;-51
2021/07/08 07:00:38;;;;;;;8.10;4.50;;;20.70;99.90;;;;;;5090454;28;20386;-55
2021/07/08 07:03:06;;;;;;;8.40;4.40;;;20.60;99.90;;;;;;5090707;28;20851;-52
2021/07/08 07:05:32;;;;;;;10.00;4.78;;;20.50;99.90;;;;;;5085779;28;20397;-58
2021/07/08 07:07:59;;;;;;;9.85;4.97;;;20.40;99.90;;;;;;5090320;28;20409;-54
2021/07/08 07:10:26;;;;;;;9.98;4.95;;;20.20;99.90;;;;;;5071081;28;20419;-52
2021/07/08 07:12:53;;;;;;;8.50;4.77;;;20.10;99.90;;;;;;5070700;28;20508;-51
2021/07/08 07:15:22;;;;;;;8.85;5.15;;;19.90;99.90;;;;;;5071518;28;20372;-52
2021/07/08 07:17:47;;;;;;;7.20;4.57;;;20.20;99.90;;;;;;5071968;28;20778;-52
2021/07/08 07:20:16;;;;;;;9.15;4.60;;;20.30;99.90;;;;;;5104278;28;20376;-52
2021/07/08 07:22:45;;;;;;;8.20;4.22;;;20.60;99.90;;;;;;5094781;28;20420;-55
2021/07/08 07:25:12;;;;;;;8.82;5.18;;;20.80;99.90;;;;;;5108531;28;20766;-54
2021/07/08 07:27:38;;;;;;;7.03;4.55;;;21.20;99.90;;;;;;5092393;28;20411;-56
2021/07/08 07:30:07;;;;;;;8.53;4.53;;;21.30;99.90;;;;;;5092172;28;20452;-56
2021/07/08 07:32:34;;;;;;;9.65;5.30;;;21.50;99.90;;;;;;5091492;28;20405;-54
2021/07/08 07:35:01;;;;;;;7.50;4.80;;;21.70;99.90;;;;;;5091692;28;20507;-55
2021/07/08 07:37:27;;;;;;;9.30;5.00;;;21.80;99.90;;;;;;5092479;28;20925;-54
2021/07/08 07:39:53;;;;;;;7.70;4.70;;;21.60;99.90;;;;;;5091870;28;20390;-54
2021/07/08 07:42:19;;;;;;;8.77;5.10;;;21.90;99.90;;;;;;5089026;28;20394;-56
2021/07/08 07:44:47;;;;;;;7.90;4.70;;;22.10;99.90;;;;;;5086314;28;20385;-55
2021/07/08 07:47:14;;;;;;;8.80;4.43;;;22.20;99.90;;;;;;5090646;28;20496;-54
2021/07/08 07:49:39;;;;;;;7.85;4.72;;;22.40;99.90;;;;;;5089638;28;20382;-55
2021/07/08 07:52:06;;;;;;;8.30;4.67;;;22.50;99.90;;;;;;5090364;28;20381;-55
2021/07/08 07:54:35;;;;;;;7.90;4.60;;;22.50;99.90;;;;;;5089826;28;20479;-58
2021/07/08 07:57:05;;;;;;;7.60;4.60;;;22.20;99.90;;;;;;5090985;28;20385;-55
2021/07/08 07:59:37;;;;;;;8.45;4.80;;;22.10;99.90;;;;;;5090573;28;20386;-54
2021/07/08 08:02:09;;;;;;;8.70;5.10;;;21.90;99.90;;;;;;5090588;28;20410;-54
2021/07/08 08:04:41;;;;;;;8.90;5.18;;;21.90;99.90;;;;;;5090124;28;20381;-55
2021/07/08 08:09:51;;;;;;;9.35;5.35;;;21.60;99.90;;;;;;5090056;28;20808;-52
2021/07/08 08:12:16;;;;;;;9.80;5.70;;;21.50;99.90;;;;;;5087579;28;20486;-54
2021/07/08 08:14:42;;;;;;;9.70;5.93;;;21.50;99.90;;;;;;5091809;28;20378;-59
2021/07/08 08:17:08;;;;;;;11.17;6.00;;;21.60;99.90;;;;;;5090209;28;20405;-55
2021/07/08 08:19:33;;;;;;;10.00;6.38;;;21.60;99.90;;;;;;5089626;28;20431;-52
2021/07/08 08:21:59;;;;;;;8.80;5.93;;;21.70;99.90;;;;;;5090841;28;20394;-52
2021/07/08 08:24:25;;;;;;;11.75;6.30;;;21.80;99.90;;;;;;5089518;28;20381;-53
2021/07/08 08:26:52;;;;;;;11.70;5.90;;;21.70;99.90;;;;;;5088930;28;20887;-53
2021/07/08 08:29:19;;;;;;;9.67;5.50;;;21.80;99.90;;;;;;5089580;28;20886;-56
2021/07/08 08:31:44;;;;;;;11.52;5.95;;;22.10;99.90;;;;;;5089429;28;20926;-52
2021/07/08 08:34:10;;;;;;;9.10;6.00;;;22.60;99.90;;;;;;5090645;28;20453;-52
2021/07/08 08:36:37;;;;;;;8.43;5.20;;;22.80;99.90;;;;;;5089253;28;20378;-53
2021/07/08 08:39:03;;;;;;;9.18;5.40;;;23.30;99.90;;;;;;5089948;28;20382;-52
2021/07/08 08:41:30;;;;;;;9.30;5.18;;;23.50;99.90;;;;;;5089532;28;20911;-55
2021/07/08 08:43:56;;;;;;;8.60;4.65;;;23.70;99.90;;;;;;5089189;28;20385;-52
2021/07/08 08:46:22;;;;;;;11.67;5.60;;;24.00;99.90;;;;;;5090588;28;20382;-52
2021/07/08 08:48:47;;;;;;;9.37;6.00;;;24.00;99.90;;;;;;5080410;28;20419;-55
2021/07/08 08:51:13;;;;;;;10.70;5.13;;;23.80;99.90;;;;;;5077404;28;20872;-52
2021/07/08 08:53:38;;;;;;;7.38;4.10;;;23.80;99.90;;;;;;5084341;28;20475;-53
2021/07/08 08:56:05;;;;;;;8.07;4.63;;;23.30;99.90;;;;;;5079811;28;20383;-52
2021/07/08 08:58:31;;;;;;;8.65;4.90;;;23.20;99.90;;;;;;5077309;28;20868;-58
2021/07/08 09:00:57;;;;;;;8.55;5.13;;;23.50;99.90;;;;;;5082530;28;20397;-52
2021/07/08 09:03:25;;;;;;;8.70;5.10;;;23.50;99.90;;;;;;5080467;28;20465;-53
2021/07/08 09:06:01;;;;;;;9.07;5.00;;;23.70;99.90;;;;;;5077722;28;20407;-53
2021/07/08 09:08:27;;;;;;;7.50;4.60;;;24.00;99.90;;;;;;5069030;28;20423;-52
2021/07/08 09:11:05;;;;;;;7.13;4.13;;;24.10;99.90;;;;;;5075355;28;20414;-52
2021/07/08 09:13:45;;;;;;;9.70;4.60;;;23.00;99.90;;;;;;5085497;28;20420;-54
2021/07/08 09:16:43;;;;;;;9.20;4.60;;;24.30;99.90;;;;;;5086666;28;20729;-53
2021/07/08 09:19:10;;;;;;;7.53;3.80;;;24.30;99.90;;;;;;5087863;28;20386;-52
2021/07/08 09:21:43;;;;;;;8.48;4.57;;;24.20;99.90;;;;;;5082960;28;20397;-52
2021/07/08 09:24:15;;;;;;;9.60;4.80;;;23.90;99.90;;;;;;5078490;28;20396;-53
2021/07/08 09:26:53;;;;;;;9.38;5.20;;;23.60;99.90;;;;;;5068642;28;20379;-52
2021/07/08 09:29:21;;;;;;;8.85;5.38;;;23.40;99.90;;;;;;5069472;28;20380;-52
2021/07/08 09:31:52;;;;;;;9.52;5.60;;;23.30;99.90;;;;;;5069241;28;20375;-53
2021/07/08 09:34:32;;;;;;;10.40;5.30;;;23.10;99.90;;;;;;5069255;28;20368;-53
2021/07/08 09:37:04;;;;;;;7.68;5.00;;;22.80;99.90;;;;;;5068587;28;20426;-55
2021/07/08 09:39:50;;;;;;;8.18;5.13;;;22.80;99.90;;;;;;5069903;28;20384;-52
2021/07/08 09:42:34;;;;;;;7.90;4.97;;;22.80;99.90;;;;;;5072685;28;20383;-55
2021/07/08 09:45:11;;;;;;;8.88;5.43;;;22.70;99.90;;;;;;5073162;28;20386;-53
2021/07/08 09:47:39;;;;;;;9.93;5.68;;;22.60;99.90;;;;;;5072345;28;20410;-53
2021/07/08 09:50:06;;;;;;;11.05;5.63;;;22.60;99.90;;;;;;5073104;28;20376;-55
2021/07/08 09:52:32;;;;;;;12.90;6.20;;;22.60;99.90;;;;;;5072851;28;20382;-60
2021/07/08 09:55:13;;;;;;;8.23;5.05;;;22.70;99.90;;;;;;5071685;28;20857;-55
2021/07/08 09:57:40;;;;;;;9.60;5.35;;;22.80;99.90;;;;;;5078946;28;20399;-54
2021/07/08 10:00:18;;;;;;;11.80;5.80;;;22.80;99.90;;;;;;5082082;28;20380;-54
2021/07/08 10:02:45;;;;;;;10.25;5.60;;;22.80;99.90;;;;;;5093010;28;20402;-54
2021/07/08 10:05:11;;;;;;;9.95;5.82;;;22.90;99.90;;;;;;5093295;28;20394;-54
2021/07/08 10:07:37;;;;;;;11.03;5.73;;;23.00;99.90;;;;;;5092411;28;20413;-55
2021/07/08 10:10:05;;;;;;;12.60;6.90;;;23.10;99.90;;;;;;5092317;28;20420;-55
2021/07/08 10:12:32;;;;;;;9.20;6.03;;;23.10;99.90;;;;;;5092830;28;20374;-54
2021/07/08 10:15:01;;;;;;;11.60;6.30;;;23.00;99.90;;;;;;5093132;28;20377;-52
2021/07/08 10:17:31;;;;;;;11.60;6.55;;;22.80;99.90;;;;;;5085667;28;20453;-52
2021/07/08 10:19:57;;;;;;;9.85;5.85;;;22.90;99.90;;;;;;5077041;28;20395;-55
2021/07/08 10:22:23;;;;;;;12.30;6.20;;;23.20;99.90;;;;;;5071872;28;20888;-54
2021/07/08 10:24:50;;;;;;;11.00;6.30;;;23.40;99.90;;;;;;5080523;28;20406;-54
2021/07/08 10:27:17;;;;;;;9.80;6.23;;;23.60;99.90;;;;;;5081591;28;20411;-53
2021/07/08 10:29:44;;;;;;;10.25;5.80;;;23.80;99.90;;;;;;5086691;28;20755;-53
2021/07/08 10:32:14;;;;;;;9.20;5.90;;;24.10;99.90;;;;;;5071483;28;20441;-52
2021/07/08 10:34:46;;;;;;;9.85;5.05;;;24.80;99.90;;;;;;5076787;28;20438;-52
2021/07/08 10:37:39;;;;;;;9.37;5.10;;;25.00;99.90;;;;;;5092305;28;20955;-52
2021/07/08 10:40:07;;;;;;;7.10;4.40;;;25.00;99.90;;;;;;5092651;28;20438;-52
2021/07/08 10:42:50;;;;;;;9.05;4.30;;;24.90;99.90;;;;;;5092154;28;20373;-58
2021/07/08 10:45:34;;;;;;;7.50;4.22;;;24.50;99.90;;;;;;5091678;28;20378;-52
2021/07/08 10:48:19;;;;;;;7.70;4.22;;;24.30;99.90;;;;;;5090725;28;20406;-52
2021/07/08 10:50:47;;;;;;;8.47;4.87;;;24.20;99.90;;;;;;5081925;28;20388;-53
2021/07/08 10:53:25;;;;;;;10.23;5.10;;;24.80;99.90;;;;;;5091924;28;20385;-53
2021/07/08 10:56:03;;;;;;;9.00;5.28;;;24.50;99.90;;;;;;5075853;28;20392;-52
2021/07/08 10:58:46;;;;;;;10.15;5.38;;;24.00;99.90;;;;;;5071412;28;20390;-52
2021/07/08 11:01:20;;;;;;;8.55;4.55;;;23.60;99.90;;;;;;5089862;28;20382;-52
2021/07/08 11:03:48;;;;;;;6.63;4.13;;;23.50;99.90;;;;;;5085886;28;20851;-52
2021/07/08 11:06:15;;;;;;;9.40;5.03;;;23.40;99.90;;;;;;5092024;28;20860;-54
2021/07/08 11:08:47;;;;;;;10.90;4.20;;;23.10;99.90;;;;;;5091062;28;20598;-55
2021/07/08 11:11:19;;;;;;;6.85;3.50;;;23.00;99.90;;;;;;5076415;28;20862;-54
2021/07/08 11:13:45;;;;;;;8.48;4.43;;;23.00;99.90;;;;;;5075594;28;20386;-54
2021/07/08 11:16:43;;;;;;;8.15;2.83;;;22.90;99.90;;;;;;5081803;28;20382;-54
2021/07/08 11:19:15;;;;;;;6.00;3.00;;;23.10;99.90;;;;;;5073505;28;20809;-57
2021/07/08 11:21:57;;;;;;;6.07;2.70;;;23.10;99.90;;;;;;5071002;28;20380;-56
2021/07/08 11:24:25;;;;;;;6.20;2.20;;;22.80;99.90;;;;;;5071580;28;20387;-54
2021/07/08 11:26:52;;;;;;;5.25;2.55;;;22.10;99.90;;;;;;5070893;28;20403;-53
2021/07/08 11:29:36;;;;;;;5.43;2.30;;;21.60;99.90;;;;;;5083276;28;20378;-52
2021/07/08 11:32:20;;;;;;;4.82;2.40;;;21.20;99.90;;;;;;5075754;28;20450;-53
2021/07/08 11:35:05;;;;;;;5.32;2.65;;;21.10;99.90;;;;;;5091032;28;20386;-53
2021/07/08 11:37:51;;;;;;;5.50;2.60;;;21.10;99.90;;;;;;5076422;28;20419;-53
2021/07/08 11:40:18;;;;;;;4.60;2.20;;;21.00;99.90;;;;;;5071358;28;20376;-53
2021/07/08 11:42:46;;;;;;;5.20;2.50;;;21.30;99.90;;;;;;5070212;28;20392;-53
2021/07/08 11:45:23;;;;;;;4.90;2.50;;;21.30;99.90;;;;;;5070772;28;20754;-52
2021/07/08 11:47:57;;;;;;;5.70;2.50;;;21.40;99.90;;;;;;5087626;28;20489;-53
2021/07/08 11:50:34;;;;;;;6.40;2.40;;;21.10;99.90;;;;;;5081890;28;20410;-53
2021/07/08 11:53:11;;;;;;;5.00;2.60;;;21.30;99.90;;;;;;5082138;28;20380;-53
2021/07/08 11:55:45;;;;;;;4.40;2.20;;;21.40;99.90;;;;;;5068942;28;20388;-53
2021/07/08 11:58:13;;;;;;;5.72;2.30;;;21.50;99.90;;;;;;5081408;28;20401;-52
2021/07/08 12:00:40;;;;;;;4.80;2.30;;;21.00;99.90;;;;;;5090046;28;20855;-53
2021/07/08 12:03:25;;;;;;;4.95;2.20;;;21.00;99.90;;;;;;5089960;28;20732;-53
2021/07/08 12:06:07;;;;;;;6.50;2.50;;;21.10;99.90;;;;;;5089749;28;20389;-52
2021/07/08 12:08:42;;;;;;;4.40;2.10;;;20.90;99.90;;;;;;5086049;28;20421;-52
2021/07/08 12:11:17;;;;;;;6.00;2.30;;;21.10;99.90;;;;;;5070802;28;20858;-52
2021/07/08 12:13:58;;;;;;;4.90;2.42;;;21.20;99.90;;;;;;5090290;28;20409;-52
2021/07/08 12:16:32;;;;;;;4.93;2.60;;;22.00;99.90;;;;;;5070850;28;20430;-53
2021/07/08 12:19:18;;;;;;;5.03;2.20;;;21.40;99.90;;;;;;5069731;28;20384;-54
2021/07/08 12:21:46;;;;;;;4.90;2.50;;;21.30;99.90;;;;;;5080652;28;20842;-54
2021/07/08 12:24:25;;;;;;;6.18;2.60;;;21.20;99.90;;;;;;5084001;28;20370;-52
2021/07/08 12:26:54;;;;;;;5.10;2.50;;;21.20;99.90;;;;;;5089372;28;20390;-53
2021/07/08 12:29:30;;;;;;;6.40;2.75;;;21.20;99.90;;;;;;5074184;28;20714;-54
2021/07/08 12:32:09;;;;;;;6.40;2.80;;;21.20;99.90;;;;;;5074204;28;20394;-53
2021/07/08 12:34:50;;;;;;;5.22;2.40;;;21.20;99.90;;;;;;5087944;28;20392;-59
2021/07/08 12:37:20;;;;;;;4.90;2.70;;;22.60;99.90;;;;;;5069362;28;20449;-54
2021/07/08 12:39:53;;;;;;;5.35;2.70;;;21.30;99.90;;;;;;5068495;28;20399;-53
2021/07/08 12:42:23;;;;;;;8.45;2.80;;;21.50;99.90;;;;;;5069416;28;20407;-54
2021/07/08 12:44:54;;;;;;;6.30;3.10;;;21.70;99.90;;;;;;5067960;28;20415;-53
2021/07/08 12:47:21;;;;;;;6.45;3.00;;;21.90;99.90;;;;;;5070030;28;20889;-52
2021/07/08 12:49:52;;;;;;;6.32;3.65;;;21.80;99.90;;;;;;5068917;28;20474;-53
2021/07/08 12:52:19;;;;;;;6.50;3.05;;;21.80;99.90;;;;;;5095110;28;20385;-55
2021/07/08 12:54:45;;;;;;;6.43;3.83;;;22.00;99.90;;;;;;5084286;28;20418;-53
2021/07/08 12:57:13;;;;;;;5.47;3.00;;;22.00;99.90;;;;;;5089395;28;20425;-53
2021/07/08 12:59:53;;;;;;;7.25;3.72;;;22.10;99.90;;;;;;5088119;28;20489;-53